Dighton, KS (67839)

4:07 AM CDT on July 28, 2014 (GMT -0500)
APRSWXNET Dighton KS US (MD9499) Elev 2788 ft | 38.48 °N, 100.47 °W | Change Station

Current weather conditions updated 33 minutes ago

Partly Cloudy
Partly Cloudy
65 °F
Feels Like 65 °F
N
0
Wind Variable Wind from ESE
Gusts 1.0 mph

Today is forecast to be nearly the same temperature as yesterday.

Today
High -- | Low -- °F
--% Chance of Precip.
Yesterday
High -- | Low -- °F
Precip. -- in
6:40 AM 8:55 PM
New Moon, 2% visible
Pressure 30.17 in
Visibility 10.0 miles
Clouds Few 12000 ft
Dew Point 57 °F
Humidity 75%
Rainfall 0.07 in
Snow Depth Not available.
UV 0 out of 12
Pollen 6.50 out of 12
Air Quality Not available.
Flu Activity Not available.
METAR KGCK 280854Z AUTO 01003KT 10SM FEW120 19/16 A3026 RMK AO2 SLP214 T01890156 58003

More Conditions Fewer Conditions

Pressure 30.17 in
Visibility 10.0 miles
Clouds Few 12000 ft
Dew Point 57 °F
Humidity 75%
Rainfall 0.07 in
Snow Depth Not available.
UV 0 out of 12
Pollen 6.50 out of 12
Air Quality Not available.
Flu Activity Not available.
METAR KGCK 280854Z AUTO 01003KT 10SM FEW120 19/16 A3026 RMK AO2 SLP214 T01890156 58003

More Conditions Fewer Conditions

10-Day Weather Forecast

Almanac

Astronomy

Jul. 28, 2014 Rise Set
Actual Time 6:40 AM CDT 8:55 PM CDT
Civil Twilight 6:10 AM CDT 9:25 PM CDT
Nautical Twilight 5:33 AM CDT 10:01 PM CDT
Astronomical Twilight 4:53 AM CDT 10:41 PM CDT
Moon 8:21 AM CDT 9:40 PM CDT
Length of Visible Light 15h 14m
Length of Day
14h 15m
Tomorrow will be 1m 47s shorter.
New Moon, 2% of the Moon is Illuminated
Today
New Moon
Aug 3
First Quarter
Aug 10
Full
Aug 17
Last Quarter
Aug 25
New

Today's Extremes

State Highs State Lows

Community

WunderPhotos

Upload Photos

1,738,295 photos uploaded!

Nearby

Snow Depth

Station Depth Elevation
No new snow has been reported.

Earthquake Activity

City Distance Mag. Time & Date
No recent earthquake activity has been reported nearby.
Minimum magnitude displayed is 2.5.

Coastal Water Temperatures

Place Temperature
No Stations Reporting

Nearby Weather Stations

Station Location Temp. Dew Point Humidity Wind Precip. Elev Updated Type
APRSWXNET Dighton KS , Dighton, KS 65 °F 57 °F 75% ESE  at  0 mph 0.00 in / hr 2788 ft 3:34 AM CDT MADIS
Root Spraying Service, Inc., Root Spraying Service, Inc.,Dighton, KS 65.3 °F 56 °F 72% ESE  at  0.0 mph 0.00 in / hr 2782 ft 4:07 AM CDT Rapid Fire
SC-LN County Line/ Road 70, Scott City, KS 68.5 °F 58 °F 70% East  at  0.0 mph 0.00 in / hr 2946 ft 4:00 AM CDT Normal
JT Berning, Scott City, KS 68.7 °F 58 °F 68% East  at  0.0 mph 0.00 in / hr 2930 ft 4:06 AM CDT Rapid Fire
Schlegel Farms, Ness City, KS 66.7 °F 55 °F 65% NE  at  1.0 mph 0.00 in / hr 2395 ft 4:06 AM CDT Normal
Gano Rd/ Rd 21, Scott City, KS 67.6 °F 59 °F 76% ENE  at  1.0 mph 0.00 in / hr 2930 ft 4:01 AM CDT Normal

Show More Stations Show Fewer Stations